CYEG/YEG METAR and TAF weather

Enter ICAO airport designator
Station Type Date Time Source
CYEG METAR 2021/09/16 11:00 UTC NOAA

CYEG 161100Z CCA 30020G29KT 20SM SCT032 SCT100 BKN120 BKN140 06/01 A2977 RMK SC4AC1AC1AC1 LWR + UPR AC TR SLP093


Station Type Date Time Source
CYEG Decoded METAR 2021/09/16 11:00 UTC NOAA

Edmonton International, Alta., Canada (CYEG) 53-18N 113-35W 723M
Sep 16, 2021 - 07:00 AM EDT / 2021.09.16 1100 UTC
Wind: from the WNW (300 degrees) at 23 MPH (20 KT) gusting to 33 MPH (29 KT):0
Visibility: 20 mile(s):0
Sky conditions: mostly cloudy
Temperature: 42 F (6 C)
Dew Point: 33 F (1 C)
Relative Humidity: 70%
Pressure (altimeter): 29.77 in. Hg (1008 hPa)
ob: CYEG 161100Z CCA 30020G29KT 20SM SCT032 SCT100 BKN120 BKN140 06/01 A2977 RMK SC4AC1AC1AC1 LWR + UPR AC TR SLP093
cycle: 11

Station Type Date Time Source
CYEG TAF 2021/09/16 12:42 UTC NOAA

TAF TAF CYEG 161138Z 1612/1712 30020G30KT P6SM SCT030 BKN120
TEMPO 1612/1618 BKN030 BKN080
FM161800 31022G35KT P6SM BKN030
TEMPO 1618/1621 SCT030
FM162100 31020G30KT P6SM SCT060
FM170100 32015G25KT P6SM SKC
BECMG 1703/1704 18008KT
FM171000 15012KT P6SM SCT140 BKN240
RMK NXT FCST BY 161500Z

Example: see airport list